Time;durP1;ratioP1;P1;durP2;ratioP2;P2;SDS_P1;SDS_P2;PMS_P1;PMS_P2;Temp;Humidity;BMP_temperature;BMP_pressure;BME280_temperature;BME280_humidity;BME280_pressure;Samples;Min_cycle;Max_cycle;Signal;HPM_P1;HPM_P2
2024/02/26 00:00:30;;;;;;;2.80;0.80;;;;;;;4.55;100.00;101154.53;105881;1256;62834;-58
2024/02/26 00:02:57;;;;;;;2.60;0.90;;;;;;;4.53;100.00;101140.30;106274;1256;74002;-58
2024/02/26 00:05:25;;;;;;;4.20;1.00;;;;;;;4.52;100.00;101136.56;105938;1262;66102;-57
2024/02/26 00:07:52;;;;;;;3.30;0.90;;;;;;;4.49;100.00;101138.36;105959;1257;71264;-57
2024/02/26 00:10:19;;;;;;;4.20;1.00;;;;;;;4.45;100.00;101134.80;105893;1259;59583;-57
2024/02/26 00:12:47;;;;;;;2.40;0.90;;;;;;;4.42;100.00;101132.67;106030;1256;59699;-55
2024/02/26 00:15:18;;;;;;;2.40;0.80;;;;;;;4.40;100.00;101123.27;105957;1256;71663;-56
2024/02/26 00:17:45;;;;;;;2.70;1.00;;;;;;;4.38;100.00;101115.27;105972;1261;65713;-56
2024/02/26 00:20:13;;;;;;;3.10;0.90;;;;;;;4.38;100.00;101118.46;106292;1256;71830;-55
2024/02/26 00:22:41;;;;;;;1.90;0.80;;;;;;;4.37;100.00;101116.52;105945;1257;59822;-56
2024/02/26 00:25:08;;;;;;;2.00;0.80;;;;;;;4.35;100.00;101114.02;105944;1259;59724;-55
2024/02/26 00:27:35;;;;;;;2.70;0.70;;;;;;;4.34;100.00;101116.17;105953;1259;71864;-56
2024/02/26 00:30:03;;;;;;;1.50;1.00;;;;;;;4.32;100.00;101117.06;105932;1277;66737;-56
2024/02/26 00:32:30;;;;;;;2.30;0.90;;;;;;;4.30;100.00;101118.48;106370;1262;72731;-56
2024/02/26 00:34:58;;;;;;;2.90;1.00;;;;;;;4.28;100.00;101117.77;105967;1259;59549;-56
2024/02/26 00:37:25;;;;;;;3.20;0.70;;;;;;;4.27;100.00;101125.40;105934;1259;59950;-56
2024/02/26 00:39:53;;;;;;;3.30;0.90;;;;;;;4.25;100.00;101126.67;105931;1262;71851;-56
2024/02/26 00:42:21;;;;;;;6.90;0.80;;;;;;;4.23;100.00;101127.38;106026;1260;66029;-56
2024/02/26 00:44:48;;;;;;;1.80;0.80;;;;;;;4.22;100.00;101129.86;105892;1261;72647;-56
2024/02/26 00:47:16;;;;;;;1.60;0.80;;;;;;;4.22;100.00;101121.15;105955;1256;61614;-56
2024/02/26 00:49:43;;;;;;;3.40;0.80;;;;;;;4.22;100.00;101116.17;105870;1259;60528;-56
2024/02/26 00:52:10;;;;;;;7.50;1.40;;;;;;;4.22;100.00;101116.89;105885;1261;73047;-56
2024/02/26 00:54:38;;;;;;;2.00;1.00;;;;;;;4.21;100.00;101120.98;105834;1260;66798;-56
2024/02/26 00:57:05;;;;;;;3.00;0.80;;;;;;;4.19;100.00;101114.39;105651;1268;71506;-57
2024/02/26 00:59:33;;;;;;;3.20;1.00;;;;;;;4.18;100.00;101111.55;105741;1263;59759;-56
2024/02/26 01:02:02;;;;;;;1.70;0.70;;;;;;;4.17;100.00;101103.55;105699;1256;60010;-56
2024/02/26 01:04:29;;;;;;;2.20;0.90;;;;;;;4.15;100.00;101095.40;105843;1261;71112;-58
2024/02/26 01:06:56;;;;;;;5.90;1.00;;;;;;;4.14;100.00;101094.16;106496;1259;67210;-57
2024/02/26 01:09:24;;;;;;;3.70;0.80;;;;;;;4.10;100.00;101086.52;105893;1262;71847;-58
2024/02/26 01:11:51;;;;;;;2.60;0.90;;;;;;;4.08;100.00;101081.55;105927;1269;61115;-57
2024/02/26 01:14:18;;;;;;;2.10;0.90;;;;;;;4.05;100.00;101077.65;105887;1256;60325;-57
2024/02/26 01:16:46;;;;;;;4.90;0.80;;;;;;;4.04;100.00;101079.77;106056;1258;71804;-57
2024/02/26 01:19:13;;;;;;;2.40;1.10;;;;;;;4.03;100.00;101081.36;106112;1262;67505;-57
2024/02/26 01:21:41;;;;;;;2.30;0.80;;;;;;;4.03;100.00;101078.70;106127;1256;72078;-57
2024/02/26 01:24:08;;;;;;;2.70;0.70;;;;;;;4.03;100.00;101079.94;106024;1261;60348;-57
2024/02/26 01:26:36;;;;;;;2.00;0.90;;;;;;;4.04;100.00;101081.73;106052;1256;61242;-57
2024/02/26 01:29:03;;;;;;;1.90;0.80;;;;;;;4.04;100.00;101080.13;106003;1263;73042;-57
2024/02/26 01:31:30;;;;;;;3.50;1.10;;;;;;;4.05;100.00;101076.58;106057;1260;66751;-57
2024/02/26 01:33:58;;;;;;;2.20;1.00;;;;;;;4.03;100.00;101073.38;106000;1261;72732;-58
2024/02/26 01:36:25;;;;;;;2.30;0.70;;;;;;;4.01;100.00;101069.11;106033;1261;60013;-57
2024/02/26 01:38:52;;;;;;;1.70;0.80;;;;;;;3.99;100.00;101062.19;105988;1260;60204;-58
2024/02/26 01:41:20;;;;;;;2.80;1.00;;;;;;;3.97;100.00;101060.95;106205;1259;71916;-56
2024/02/26 01:43:47;;;;;;;3.40;1.10;;;;;;;3.95;100.00;101064.50;105987;1261;67389;-58
2024/02/26 01:46:15;;;;;;;1.90;1.00;;;;;;;3.93;100.00;101059.52;105957;1259;72731;-55
2024/02/26 01:48:42;;;;;;;2.00;1.00;;;;;;;3.92;100.00;101058.80;105764;1257;60492;-57
2024/02/26 01:51:10;;;;;;;4.20;1.10;;;;;;;3.92;100.00;101053.66;106647;1260;60560;-57
2024/02/26 01:53:38;;;;;;;3.40;1.10;;;;;;;3.92;100.00;101048.15;106170;1261;74759;-58
2024/02/26 01:56:06;;;;;;;3.40;0.90;;;;;;;3.93;100.00;101049.75;105783;1256;67644;-58
2024/02/26 01:58:34;;;;;;;4.10;1.00;;;;;;;3.94;100.00;101048.86;106031;1262;72752;-56
2024/02/26 02:01:01;;;;;;;2.00;1.00;;;;;;;3.94;100.00;101044.79;106062;1256;60526;-58
2024/02/26 02:03:29;;;;;;;2.50;1.10;;;;;;;3.94;100.00;101045.31;106052;1256;59613;-57
2024/02/26 02:05:56;;;;;;;12.60;1.60;;;;;;;3.94;100.00;101049.04;105980;1257;75020;-58
2024/02/26 02:08:24;;;;;;;1.40;1.20;;;;;;;3.92;100.00;101044.24;105891;1256;65734;-57
2024/02/26 02:10:51;;;;;;;3.20;1.20;;;;;;;3.91;100.00;101043.73;105880;1262;72475;-57
2024/02/26 02:13:18;;;;;;;3.20;1.40;;;;;;;3.89;100.00;101047.29;106147;1262;59724;-58
2024/02/26 02:15:46;;;;;;;2.50;1.20;;;;;;;3.86;100.00;101044.44;105945;1262;60178;-58
2024/02/26 02:18:13;;;;;;;2.00;1.00;;;;;;;3.83;100.00;101042.48;105890;1273;71017;-58
2024/02/26 02:20:40;;;;;;;4.10;1.30;;;;;;;3.83;100.00;101045.68;105876;1262;66949;-58
2024/02/26 02:23:08;;;;;;;8.20;1.20;;;;;;;3.84;100.00;101045.32;105998;1259;72778;-58
2024/02/26 02:25:35;;;;;;;3.90;1.40;;;;;;;3.85;100.00;101045.85;105873;1260;60441;-59
2024/02/26 02:28:02;;;;;;;3.40;1.30;;;;;;;3.87;100.00;101046.04;105920;1261;60461;-60
2024/02/26 02:30:30;;;;;;;2.20;1.30;;;;;;;3.88;100.00;101047.11;105847;1257;74327;-58
2024/02/26 02:32:58;;;;;;;3.40;1.50;;;;;;;3.89;100.00;101044.98;105866;1265;65828;-57
2024/02/26 02:35:26;;;;;;;3.50;1.50;;;;;;;3.88;100.00;101041.24;106381;1256;71792;-59
2024/02/26 02:37:54;;;;;;;9.70;2.20;;;;;;;3.86;100.00;101037.86;106008;1261;60350;-58
2024/02/26 02:40:21;;;;;;;4.10;1.50;;;;;;;3.82;100.00;101031.13;105894;1263;60394;-57
2024/02/26 02:42:48;;;;;;;3.50;2.20;;;;;;;3.77;100.00;101028.11;108900;1256;73768;-58
2024/02/26 02:45:16;;;;;;;7.10;1.70;;;;;;;3.74;100.00;101025.80;108990;1256;66763;-58
2024/02/26 02:47:43;;;;;;;4.70;1.50;;;;;;;3.72;100.00;101021.73;108727;1256;73141;-55
2024/02/26 02:50:10;;;;;;;2.30;1.40;;;;;;;3.71;100.00;101028.64;108326;1256;61393;-54
2024/02/26 02:52:38;;;;;;;4.90;1.40;;;;;;;3.71;100.00;101029.54;106353;1262;60447;-56
2024/02/26 02:55:06;;;;;;;3.20;1.60;;;;;;;3.73;100.00;101032.55;106020;1256;73813;-55
2024/02/26 02:57:33;;;;;;;4.10;1.90;;;;;;;3.75;100.00;101037.68;106016;1261;65667;-53
2024/02/26 03:00:00;;;;;;;4.60;1.60;;;;;;;3.77;100.00;101044.27;105927;1262;72767;-57
2024/02/26 03:02:29;;;;;;;6.20;2.10;;;;;;;3.77;100.00;101042.13;105940;1262;60503;-55
2024/02/26 03:04:56;;;;;;;3.20;1.50;;;;;;;3.77;100.00;101046.04;105946;1272;61430;-55
2024/02/26 03:07:24;;;;;;;2.80;1.50;;;;;;;3.77;100.00;101040.35;105942;1262;73900;-55
2024/02/26 03:09:51;;;;;;;7.20;1.70;;;;;;;3.75;100.00;101041.42;105971;1261;68566;-55
2024/02/26 03:12:19;;;;;;;2.90;1.60;;;;;;;3.71;100.00;101040.36;105939;1262;71730;-56
2024/02/26 03:14:46;;;;;;;5.80;1.80;;;;;;;3.69;100.00;101045.86;105888;1257;61872;-57
2024/02/26 03:17:13;;;;;;;5.60;2.00;;;;;;;3.67;100.00;101049.04;105899;1262;60586;-55
2024/02/26 03:19:41;;;;;;;3.30;1.50;;;;;;;3.67;100.00;101045.67;105967;1262;73785;-58
2024/02/26 03:22:08;;;;;;;4.60;1.40;;;;;;;3.65;100.00;101039.84;106335;1259;66167;-56
2024/02/26 03:24:36;;;;;;;3.40;1.60;;;;;;;3.66;100.00;101038.77;105836;1263;71763;-58
2024/02/26 03:27:04;;;;;;;4.10;1.80;;;;;;;3.67;100.00;101034.14;106007;1259;60874;-56
2024/02/26 03:29:32;;;;;;;5.00;1.50;;;;;;;3.68;100.00;101031.83;105967;1259;60521;-54
2024/02/26 03:31:59;;;;;;;3.10;1.50;;;;;;;3.69;100.00;101033.08;105906;1256;72685;-55
2024/02/26 03:34:27;;;;;;;2.80;2.10;;;;;;;3.68;100.00;101028.99;105950;1261;65854;-56
2024/02/26 03:36:54;;;;;;;4.30;1.80;;;;;;;3.66;100.00;101025.45;106171;1257;71676;-56
2024/02/26 03:39:22;;;;;;;4.30;2.30;;;;;;;3.65;100.00;101021.72;106025;1259;60626;-56
2024/02/26 03:41:49;;;;;;;5.20;1.70;;;;;;;3.63;100.00;101016.40;106148;1262;60613;-56
2024/02/26 03:44:17;;;;;;;4.60;1.60;;;;;;;3.61;100.00;101010.71;106055;1262;73840;-57
2024/02/26 03:46:44;;;;;;;3.80;1.70;;;;;;;3.58;100.00;101006.80;105980;1260;66259;-57
2024/02/26 03:49:12;;;;;;;5.00;2.00;;;;;;;3.55;100.00;101001.49;105971;1258;71414;-55
2024/02/26 03:51:40;;;;;;;6.30;1.50;;;;;;;3.52;100.00;100992.08;106073;1257;60902;-54
2024/02/26 03:54:08;;;;;;;7.50;2.40;;;;;;;3.50;100.00;100995.27;105876;1256;60511;-55
2024/02/26 03:56:35;;;;;;;11.80;4.70;;;;;;;3.50;100.00;100989.58;106502;1260;72664;-56
2024/02/26 03:59:03;;;;;;;6.40;3.30;;;;;;;3.51;100.00;100982.66;105907;1263;66294;-57
2024/02/26 04:01:30;;;;;;;9.40;4.30;;;;;;;3.53;100.00;100977.34;105823;1259;72364;-57
2024/02/26 04:03:57;;;;;;;7.40;3.00;;;;;;;3.53;100.00;100972.02;105876;1260;60665;-54
2024/02/26 04:06:25;;;;;;;4.90;2.40;;;;;;;3.53;100.00;100973.27;105883;1256;60502;-58
2024/02/26 04:08:52;;;;;;;7.60;3.20;;;;;;;3.51;100.00;100969.17;105904;1268;73796;-58
2024/02/26 04:11:20;;;;;;;8.30;4.20;;;;;;;3.49;100.00;100970.06;105957;1263;67375;-55
2024/02/26 04:13:50;;;;;;;10.00;3.60;;;;;;;3.47;100.00;100973.46;106095;1262;72432;-53
2024/02/26 04:16:18;;;;;;;9.50;3.00;;;;;;;3.45;100.00;100978.23;105914;1261;60772;-53
2024/02/26 04:18:45;;;;;;;8.20;2.40;;;;;;;3.43;100.00;100981.96;105970;1261;60312;-54
2024/02/26 04:21:12;;;;;;;7.10;3.00;;;;;;;3.43;100.00;100991.54;106281;1261;74686;-55
2024/02/26 04:23:40;;;;;;;6.80;2.00;;;;;;;3.44;100.00;100993.85;105932;1279;67788;-56
2024/02/26 04:26:07;;;;;;;4.90;1.40;;;;;;;3.48;100.00;100994.92;105840;1262;72481;-57
2024/02/26 04:28:35;;;;;;;3.40;2.20;;;;;;;3.50;100.00;100994.90;105929;1256;60508;-58
2024/02/26 04:31:03;;;;;;;10.60;2.10;;;;;;;3.51;100.00;101003.25;106313;1257;61222;-54
2024/02/26 04:33:30;;;;;;;4.10;2.30;;;;;;;3.52;100.00;101006.45;105925;1262;72666;-54
2024/02/26 04:35:57;;;;;;;3.90;1.70;;;;;;;3.53;100.00;101009.29;106463;1257;65526;-54
2024/02/26 04:38:25;;;;;;;5.40;1.80;;;;;;;3.54;100.00;101011.78;106056;1271;73124;-54
2024/02/26 04:40:52;;;;;;;5.50;1.90;;;;;;;3.54;100.00;101005.40;105979;1262;60416;-55
2024/02/26 04:43:19;;;;;;;4.70;1.40;;;;;;;3.53;100.00;100998.83;105961;1264;60565;-55
2024/02/26 04:45:47;;;;;;;2.00;1.50;;;;;;;3.50;100.00;100992.08;105967;1258;73871;-58
2024/02/26 04:48:15;;;;;;;3.40;1.30;;;;;;;3.45;100.00;100985.88;105967;1262;64766;-58
2024/02/26 04:50:42;;;;;;;4.90;1.70;;;;;;;3.41;100.00;100989.95;105982;1256;72676;-56
2024/02/26 04:53:09;;;;;;;7.20;1.80;;;;;;;3.40;100.00;100985.69;105878;1258;61417;-56
2024/02/26 04:55:37;;;;;;;3.60;1.70;;;;;;;3.41;100.00;100984.62;105966;1270;61506;-59
2024/02/26 04:58:04;;;;;;;4.10;2.00;;;;;;;3.41;100.00;100983.55;106090;1256;72620;-55
2024/02/26 05:00:31;;;;;;;5.50;1.80;;;;;;;3.43;100.00;100996.86;106135;1262;67573;-55
2024/02/26 05:02:58;;;;;;;4.30;1.70;;;;;;;3.43;100.00;100996.15;107556;1260;72629;-55
2024/02/26 05:05:26;;;;;;;2.30;1.40;;;;;;;3.45;100.00;101003.79;108826;1257;58494;-56
2024/02/26 05:07:53;;;;;;;4.90;1.70;;;;;;;3.46;100.00;101004.86;107311;1257;60158;-59
2024/02/26 05:10:20;;;;;;;4.60;2.20;;;;;;;3.44;100.00;101002.55;105903;1256;72587;-54
2024/02/26 05:12:48;;;;;;;2.90;1.50;;;;;;;3.42;100.00;101002.36;105965;1260;67016;-55
2024/02/26 05:15:18;;;;;;;7.20;2.10;;;;;;;3.40;100.00;101004.67;106023;1262;72738;-57
2024/02/26 05:17:46;;;;;;;4.50;2.30;;;;;;;3.40;100.00;101001.32;108842;1260;59644;-55
2024/02/26 05:20:13;;;;;;;4.80;1.80;;;;;;;3.38;100.00;101001.48;108783;1256;58842;-55
2024/02/26 05:22:40;;;;;;;2.30;1.60;;;;;;;3.38;100.00;101001.13;108878;1260;74132;-56
2024/02/26 05:25:08;;;;;;;5.40;1.60;;;;;;;3.38;100.00;101003.27;108861;1257;69639;-55
2024/02/26 05:27:35;;;;;;;5.10;1.80;;;;;;;3.39;100.00;101006.28;108873;1257;72161;-56
2024/02/26 05:30:03;;;;;;;4.10;2.00;;;;;;;3.42;100.00;101014.25;106576;1262;60587;-55
2024/02/26 05:32:30;;;;;;;5.00;2.60;;;;;;;3.45;100.00;101017.81;109033;1256;59284;-56
2024/02/26 05:34:58;;;;;;;5.40;2.30;;;;;;;3.46;100.00;101023.48;107330;1261;74000;-55
2024/02/26 05:37:25;;;;;;;7.20;2.60;;;;;;;3.46;100.00;101024.92;105987;1256;65179;-56
2024/02/26 05:39:52;;;;;;;5.10;1.70;;;;;;;3.46;100.00;101025.80;106009;1259;71428;-57
2024/02/26 05:42:20;;;;;;;6.20;2.20;;;;;;;3.45;100.00;101028.27;106086;1262;61337;-56
2024/02/26 05:44:47;;;;;;;8.30;2.40;;;;;;;3.44;100.00;101030.94;106071;1260;60580;-56
2024/02/26 05:47:15;;;;;;;5.50;1.90;;;;;;;3.43;100.00;101032.71;105895;1260;71755;-55
2024/02/26 05:49:43;;;;;;;3.30;1.40;;;;;;;3.44;100.00;101031.82;105859;1261;66305;-55
2024/02/26 05:52:10;;;;;;;6.50;2.10;;;;;;;3.46;100.00;101032.55;108985;1260;71471;-59
2024/02/26 05:54:37;;;;;;;4.10;2.00;;;;;;;3.47;100.00;101032.38;108035;1258;60287;-56
2024/02/26 05:57:05;;;;;;;6.40;2.30;;;;;;;3.50;100.00;101033.60;105848;1260;60428;-56
2024/02/26 05:59:32;;;;;;;6.80;2.80;;;;;;;3.52;100.00;101035.20;106484;1262;73787;-57
2024/02/26 06:02:00;;;;;;;3.10;2.00;;;;;;;3.54;100.00;101035.91;107797;1260;67425;-55
2024/02/26 06:04:27;;;;;;;7.40;2.90;;;;;;;3.57;100.00;101032.55;106005;1263;72565;-58
2024/02/26 06:06:54;;;;;;;4.30;2.20;;;;;;;3.59;100.00;101037.51;105938;1273;60338;-54
2024/02/26 06:09:22;;;;;;;7.20;2.10;;;;;;;3.62;100.00;101037.70;106010;1262;60429;-57
2024/02/26 06:11:50;;;;;;;5.80;2.40;;;;;;;3.63;100.00;101039.66;106292;1262;72878;-56
2024/02/26 06:14:18;;;;;;;2.70;2.10;;;;;;;3.64;100.00;101036.64;106018;1269;67066;-56
2024/02/26 06:16:46;;;;;;;3.90;2.10;;;;;;;3.65;100.00;101038.23;106448;1260;71788;-59
2024/02/26 06:19:13;;;;;;;3.40;1.60;;;;;;;3.67;100.00;101035.73;106148;1262;60482;-55
2024/02/26 06:21:41;;;;;;;5.60;2.10;;;;;;;3.70;100.00;101036.45;105994;1261;60842;-56
2024/02/26 06:24:08;;;;;;;3.00;2.20;;;;;;;3.73;100.00;101035.05;105982;1261;74031;-55
2024/02/26 06:26:35;;;;;;;11.30;2.10;;;;;;;3.76;100.00;101036.63;106229;1260;67298;-56
2024/02/26 06:29:03;;;;;;;3.60;2.40;;;;;;;3.80;100.00;101037.34;105985;1263;72733;-55
2024/02/26 06:31:30;;;;;;;4.10;1.90;;;;;;;3.83;100.00;101041.42;105900;1257;60751;-60
2024/02/26 06:33:57;;;;;;;5.40;1.60;;;;;;;3.85;100.00;101034.84;105892;1262;60614;-53
2024/02/26 06:36:25;;;;;;;11.70;3.40;;;;;;;3.87;100.00;101043.20;106722;1260;71929;-55
2024/02/26 06:38:53;;;;;;;7.10;2.80;;;;;;;3.87;100.00;101036.63;106550;1263;65784;-55
2024/02/26 06:41:27;;;;;;;5.60;2.40;;;;;;;3.86;100.00;101032.71;106161;1273;72688;-55
2024/02/26 06:43:54;;;;;;;4.20;2.50;;;;;;;3.87;100.00;101035.20;106558;1260;61320;-57
2024/02/26 06:46:25;;;;;;;4.10;2.10;;;;;;;3.93;100.00;101030.40;106843;1256;60505;-58
2024/02/26 06:48:53;;;;;;;9.20;2.40;;;;;;;4.00;100.00;101032.53;105923;1260;72681;-57
2024/02/26 06:51:22;;;;;;;5.60;2.30;;;;;;;4.08;100.00;101033.76;107047;1260;68250;-54
2024/02/26 06:53:50;;;;;;;6.60;3.10;;;;;;;4.11;100.00;101027.53;106036;1269;71120;-56
2024/02/26 06:56:17;;;;;;;3.90;2.90;;;;;;;4.11;100.00;101031.27;105943;1258;61307;-54
2024/02/26 06:58:44;;;;;;;5.40;2.80;;;;;;;4.10;100.00;101023.80;105892;1262;60443;-56
2024/02/26 07:01:12;;;;;;;7.90;3.10;;;;;;;4.09;100.00;101027.34;105942;1260;74433;-52
2024/02/26 07:03:43;;;;;;;7.20;3.50;;;;;;;4.11;100.00;101025.04;106347;1260;67455;-57
2024/02/26 07:06:11;;;;;;;4.60;2.30;;;;;;;4.16;100.00;101030.38;106010;1261;72757;-53
2024/02/26 07:08:39;;;;;;;5.70;2.90;;;;;;;4.24;100.00;101034.98;106143;1261;61434;-57
2024/02/26 07:11:10;;;;;;;5.40;2.90;;;;;;;4.32;100.00;101043.66;105998;1268;60486;-57
2024/02/26 07:13:37;;;;;;;3.90;2.50;;;;;;;4.41;100.00;101046.48;106301;1260;71666;-57
2024/02/26 07:16:05;;;;;;;4.10;2.70;;;;;;;4.50;100.00;101052.50;105992;1256;67528;-57
2024/02/26 07:18:33;;;;;;;6.00;3.10;;;;;;;4.58;100.00;101055.14;105943;1270;72759;-56
2024/02/26 07:21:04;;;;;;;5.00;2.20;;;;;;;4.62;100.00;101054.23;106001;1257;61400;-57
2024/02/26 07:23:31;;;;;;;7.20;2.30;;;;;;;4.63;100.00;101051.74;105880;1263;60979;-58
2024/02/26 07:25:59;;;;;;;6.90;2.30;;;;;;;4.64;100.00;101048.36;105911;1262;72719;-58
2024/02/26 07:28:26;;;;;;;7.20;2.40;;;;;;;4.69;100.00;101054.21;105967;1273;66109;-57
2024/02/26 07:30:54;;;;;;;5.20;2.70;;;;;;;4.75;100.00;101055.96;105907;1263;71484;-57
2024/02/26 07:33:21;;;;;;;6.10;2.40;;;;;;;4.83;100.00;101058.06;105973;1260;60499;-58
2024/02/26 07:35:49;;;;;;;5.50;2.90;;;;;;;4.94;100.00;101063.89;105874;1258;60534;-58
2024/02/26 07:38:16;;;;;;;5.20;2.70;;;;;;;5.05;100.00;101072.02;105930;1279;72949;-57
2024/02/26 07:40:58;;;;;;;3.20;2.00;;;;;;;5.15;100.00;101081.23;105744;1275;65726;-57
2024/02/26 07:43:30;;;;;;;5.10;3.40;;;;;;;5.23;100.00;101081.00;106189;1260;74813;-56
2024/02/26 07:45:57;;;;;;;5.00;3.20;;;;;;;5.31;100.00;101082.55;105962;1260;60853;-57
2024/02/26 07:48:25;;;;;;;6.00;3.20;;;;;;;5.38;100.00;101080.20;105879;1260;60549;-58
2024/02/26 07:50:52;;;;;;;5.60;2.50;;;;;;;5.42;100.00;101078.58;106128;1261;72234;-57
2024/02/26 07:53:19;;;;;;;6.20;3.70;;;;;;;5.43;100.00;101084.29;105983;1261;65520;-57
2024/02/26 07:55:47;;;;;;;10.80;2.60;;;;;;;5.45;100.00;101084.23;105904;1262;71428;-58
2024/02/26 07:58:14;;;;;;;7.00;3.10;;;;;;;5.47;100.00;101080.50;105889;1270;61224;-59
2024/02/26 08:00:42;;;;;;;6.20;2.90;;;;;;;5.44;100.00;101077.86;105969;1269;60364;-58
2024/02/26 08:03:09;;;;;;;5.80;2.90;;;;;;;5.41;100.00;101076.80;105907;1261;73922;-57
2024/02/26 08:05:39;;;;;;;5.70;2.30;;;;;;;5.38;100.00;101076.46;106854;1258;65668;-57
2024/02/26 08:08:07;;;;;;;4.30;2.50;;;;;;;5.33;100.00;101071.70;108869;1257;70673;-58
2024/02/26 08:10:35;;;;;;;6.00;3.10;;;;;;;5.29;100.00;101066.90;108904;1257;58560;-58
2024/02/26 08:13:05;;;;;;;4.50;2.70;;;;;;;5.29;100.00;101064.23;108542;1257;60506;-55
2024/02/26 08:15:37;;;;;;;4.70;2.70;;;;;;;5.28;100.00;101057.64;105997;1260;72768;-59
2024/02/26 08:18:05;;;;;;;7.30;3.90;;;;;;;5.28;100.00;101059.23;105911;1260;65845;-56
2024/02/26 08:20:33;;;;;;;4.60;3.00;;;;;;;5.28;100.00;101056.58;108881;1256;70783;-57
2024/02/26 08:23:00;;;;;;;9.10;3.00;;;;;;;5.32;100.00;101051.23;108999;1257;58617;-56
2024/02/26 08:25:27;;;;;;;5.70;3.30;;;;;;;5.36;100.00;101051.56;108833;1260;60101;-56
2024/02/26 08:27:55;;;;;;;7.00;3.50;;;;;;;5.39;100.00;101048.86;108845;1257;73344;-55
2024/02/26 08:30:22;;;;;;;5.40;2.70;;;;;;;5.44;100.00;101049.55;108750;1256;65631;-56
2024/02/26 08:32:49;;;;;;;9.30;3.00;;;;;;;5.50;100.00;101049.86;105975;1269;70658;-55
2024/02/26 08:35:19;;;;;;;8.80;3.60;;;;;;;5.55;100.00;101050.52;108949;1256;58668;-56
2024/02/26 08:37:47;;;;;;;8.50;4.20;;;;;;;5.59;100.00;101058.17;108905;1256;58807;-54
2024/02/26 08:40:14;;;;;;;6.80;3.60;;;;;;;5.59;100.00;101062.80;108900;1257;72750;-57
2024/02/26 08:42:42;;;;;;;5.20;3.30;;;;;;;5.59;100.00;101060.30;108859;1260;65769;-55
2024/02/26 08:45:09;;;;;;;6.10;3.10;;;;;;;5.60;100.00;101058.86;108942;1256;73372;-55
2024/02/26 08:47:37;;;;;;;9.00;3.70;;;;;;;5.60;100.00;101062.09;108879;1256;58678;-55
2024/02/26 08:50:06;;;;;;;6.40;3.40;;;;;;;5.57;100.00;101056.58;106437;1260;60454;-57
2024/02/26 08:52:33;;;;;;;7.90;4.10;;;;;;;5.56;100.00;101059.07;106932;1259;72609;-54
2024/02/26 08:55:01;;;;;;;8.40;3.70;;;;;;;5.55;100.00;101060.32;105942;1272;67826;-54
2024/02/26 08:57:28;;;;;;;12.50;4.50;;;;;;;5.53;100.00;101061.58;105999;1257;71463;-55
2024/02/26 08:59:55;;;;;;;10.40;5.20;;;;;;;5.52;100.00;101063.92;105912;1257;60656;-55
2024/02/26 09:02:23;;;;;;;7.10;3.20;;;;;;;5.55;100.00;101065.13;105959;1267;60629;-54
2024/02/26 09:04:53;;;;;;;7.40;3.20;;;;;;;5.56;100.00;101065.66;105909;1261;75929;-56
2024/02/26 09:07:21;;;;;;;7.10;3.60;;;;;;;5.56;100.00;101066.19;105916;1260;67053;-56
2024/02/26 09:09:49;;;;;;;7.90;3.40;;;;;;;5.58;100.00;101067.25;106020;1260;72746;-56
2024/02/26 09:12:16;;;;;;;7.50;3.20;;;;;;;5.60;100.00;101067.95;105937;1270;60654;-56
2024/02/26 09:14:43;;;;;;;5.80;3.50;;;;;;;5.63;100.00;101074.33;105920;1270;61358;-54
2024/02/26 09:17:11;;;;;;;5.90;2.90;;;;;;;5.67;100.00;101071.46;105981;1260;73931;-56
2024/02/26 09:19:38;;;;;;;7.60;3.80;;;;;;;5.69;100.00;101069.85;105924;1257;65870;-55
2024/02/26 09:22:06;;;;;;;9.00;3.40;;;;;;;5.72;100.00;101071.05;105856;1256;71559;-55
2024/02/26 09:24:34;;;;;;;8.40;3.00;;;;;;;5.72;100.00;101067.31;105972;1260;60508;-55
2024/02/26 09:27:01;;;;;;;4.50;2.90;;;;;;;5.74;100.00;101069.45;105953;1261;61084;-59
2024/02/26 09:29:29;;;;;;;7.00;3.30;;;;;;;5.73;100.00;101060.54;106138;1257;76088;-56
2024/02/26 09:31:56;;;;;;;5.80;2.80;;;;;;;5.70;100.00;101056.45;105915;1258;69580;-56
2024/02/26 09:34:24;;;;;;;7.20;4.10;;;;;;;5.70;100.00;101052.90;105942;1261;72575;-59
2024/02/26 09:36:51;;;;;;;8.10;3.30;;;;;;;5.72;100.00;101052.53;105937;1261;60576;-54
2024/02/26 09:39:21;;;;;;;5.40;3.30;;;;;;;5.76;100.00;101055.36;105957;1260;61918;-56
2024/02/26 09:41:49;;;;;;;7.60;2.90;;;;;;;5.80;100.00;101055.31;105907;1270;73915;-56
2024/02/26 09:44:21;;;;;;;4.00;2.70;;;;;;;5.83;100.00;101053.52;105842;1264;67290;-56
2024/02/26 09:46:49;;;;;;;5.40;2.70;;;;;;;5.89;100.00;101052.42;105829;1257;72750;-56
2024/02/26 09:49:20;;;;;;;2.70;2.50;;;;;;;5.96;100.00;101051.30;105824;1260;61221;-57
2024/02/26 09:51:49;;;;;;;9.30;2.80;;;;;;;6.02;100.00;101050.90;105869;1260;60449;-56
2024/02/26 09:54:16;;;;;;;7.90;3.00;;;;;;;6.09;100.00;101053.50;105987;1257;74551;-56
2024/02/26 09:56:43;;;;;;;7.60;3.70;;;;;;;6.14;100.00;101060.05;105953;1260;67423;-59
2024/02/26 09:59:26;;;;;;;7.30;2.60;;;;;;;6.17;100.00;101064.65;105928;1261;71469;-56
2024/02/26 10:01:53;;;;;;;7.40;3.60;;;;;;;6.19;100.00;101060.36;105815;1267;61461;-54
2024/02/26 10:04:20;;;;;;;3.80;3.00;;;;;;;6.22;100.00;101063.00;105958;1257;60393;-58
2024/02/26 10:06:49;;;;;;;5.40;3.20;;;;;;;6.25;100.00;101062.97;106175;1262;72652;-55
2024/02/26 10:09:17;;;;;;;4.70;2.20;;;;;;;6.29;100.00;101062.04;105981;1261;67332;-56
2024/02/26 10:11:44;;;;;;;6.80;2.90;;;;;;;6.33;100.00;101064.13;106386;1257;72059;-55
2024/02/26 10:14:12;;;;;;;7.00;3.10;;;;;;;6.36;100.00;101066.08;105974;1257;59295;-55
2024/02/26 10:16:39;;;;;;;3.50;2.30;;;;;;;6.39;100.00;101065.13;105921;1257;60583;-56
2024/02/26 10:19:06;;;;;;;6.80;2.80;;;;;;;6.42;100.00;101062.44;105752;1257;73984;-55
2024/02/26 10:21:34;;;;;;;5.70;2.80;;;;;;;6.46;100.00;101059.91;106055;1260;65657;-56
2024/02/26 10:24:01;;;;;;;5.00;2.10;;;;;;;6.52;100.00;101061.09;105984;1258;70871;-56
2024/02/26 10:26:29;;;;;;;7.00;3.40;;;;;;;6.58;100.00;101054.23;105909;1266;60554;-56
2024/02/26 10:28:59;;;;;;;3.60;2.00;;;;;;;6.67;100.00;101059.11;105942;1261;60464;-58
2024/02/26 10:34:07;;;;;;;7.10;2.60;;;;;;;6.83;100.00;101131.01;102767;1296;600357;-56
2024/02/26 10:36:35;;;;;;;4.60;1.70;;;;;;;6.87;100.00;101146.15;105367;1271;60137;-57
2024/02/26 10:39:17;;;;;;;4.20;2.70;;;;;;;6.92;100.00;101137.70;105350;1272;60024;-57
2024/02/26 10:41:45;;;;;;;4.70;2.30;;;;;;;6.96;100.00;101120.70;105296;1267;72822;-57
2024/02/26 10:44:12;;;;;;;8.00;3.70;;;;;;;7.00;100.00;101111.18;105477;1267;66924;-57
2024/02/26 10:46:47;;;;;;;6.30;2.80;;;;;;;7.04;100.00;101107.05;105229;1270;206842;-59
2024/02/26 10:49:17;;;;;;;6.20;3.50;;;;;;;7.05;100.00;101101.85;108599;1260;58749;-57
2024/02/26 10:51:50;;;;;;;9.20;3.80;;;;;;;7.08;100.00;101100.19;108790;1260;58848;-57
2024/02/26 10:54:18;;;;;;;18.00;5.80;;;;;;;7.12;100.00;101093.73;105646;1266;72291;-59
2024/02/26 10:56:45;;;;;;;27.60;12.80;;;;;;;7.16;100.00;101094.73;105999;1259;66219;-58
2024/02/26 10:59:13;;;;;;;9.40;4.50;;;;;;;7.21;100.00;101095.74;106038;1257;73055;-58
2024/02/26 11:01:41;;;;;;;12.30;6.70;;;;;;;7.27;100.00;101091.38;105930;1264;60206;-57
2024/02/26 11:04:09;;;;;;;11.30;5.00;;;;;;;7.33;100.00;101091.30;106105;1276;59672;-56
2024/02/26 11:06:36;;;;;;;5.10;2.20;;;;;;;7.39;100.00;101087.83;108764;1257;71898;-56
2024/02/26 11:09:04;;;;;;;8.70;4.90;;;;;;;7.46;100.00;101094.16;108672;1257;67358;-59
2024/02/26 11:11:31;;;;;;;23.10;10.70;;;;;;;7.54;100.00;101095.29;108692;1257;72831;-57
2024/02/26 11:13:59;;;;;;;19.80;9.20;;;;;;;7.62;100.00;101098.55;108795;1257;58567;-57
2024/02/26 11:16:26;;;;;;;4.40;2.40;;;;;;;7.70;100.00;101105.77;108785;1257;58836;-56
2024/02/26 11:18:56;;;;;;;4.70;2.70;;;;;;;7.76;100.00;101107.80;108759;1257;75168;-57
2024/02/26 11:21:30;;;;;;;6.40;2.10;;;;;;;7.82;100.00;101115.40;108838;1257;68261;-56